Time;durP1;ratioP1;P1;durP2;ratioP2;P2;SDS_P1;SDS_P2;PMS_P1;PMS_P2;Temp;Humidity;BMP_temperature;BMP_pressure;BME280_temperature;BME280_humidity;BME280_pressure;Samples;Min_cycle;Max_cycle;Signal;HPM_P1;HPM_P2
2021/05/28 00:01:49;;;;;;;3.83;3.63;;;19.00;33.00;;;;;;4954912;29;20534;-76
2021/05/28 00:04:14;;;;;;;3.90;3.70;;;19.00;33.10;;;;;;4955171;29;20809;-76
2021/05/28 00:06:40;;;;;;;3.90;3.70;;;19.00;33.10;;;;;;4953871;29;20176;-77
2021/05/28 00:09:06;;;;;;;3.67;3.47;;;19.00;33.10;;;;;;4953736;29;20214;-77
2021/05/28 00:11:31;;;;;;;3.80;3.60;;;19.00;33.10;;;;;;4953592;29;20191;-77
2021/05/28 00:13:57;;;;;;;3.37;3.23;;;19.00;33.10;;;;;;4953553;29;20187;-77
2021/05/28 00:16:24;;;;;;;3.80;3.60;;;19.00;33.10;;;;;;4953171;29;20245;-76
2021/05/28 00:18:50;;;;;;;4.03;3.70;;;19.00;33.10;;;;;;4953347;29;20203;-76
2021/05/28 00:21:15;;;;;;;3.20;3.00;;;19.00;33.10;;;;;;4953391;29;20937;-76
2021/05/28 00:23:41;;;;;;;3.77;3.57;;;19.00;33.10;;;;;;4936033;29;20674;-76
2021/05/28 00:26:06;;;;;;;3.73;3.53;;;18.90;33.00;;;;;;4953133;29;20191;-77
2021/05/28 00:28:32;;;;;;;3.40;3.30;;;19.00;33.10;;;;;;4953374;29;20187;-76
2021/05/28 00:30:58;;;;;;;3.47;3.27;;;19.00;33.10;;;;;;4953161;29;20176;-76
2021/05/28 00:33:23;;;;;;;3.97;3.77;;;18.90;33.00;;;;;;4953247;29;20175;-76
2021/05/28 00:35:49;;;;;;;3.90;3.70;;;19.00;33.10;;;;;;4952991;29;20234;-76
2021/05/28 00:38:14;;;;;;;3.60;3.50;;;18.90;33.10;;;;;;4953353;29;20183;-77
2021/05/28 00:40:40;;;;;;;3.60;3.43;;;19.00;33.10;;;;;;4935882;29;20186;-77
2021/05/28 00:43:05;;;;;;;3.70;3.50;;;19.00;33.20;;;;;;4953278;29;20215;-77
2021/05/28 00:45:31;;;;;;;4.17;3.97;;;18.90;33.10;;;;;;4952987;29;20176;-76
2021/05/28 00:47:57;;;;;;;3.30;3.20;;;18.90;33.10;;;;;;4953221;29;20834;-77
2021/05/28 00:50:22;;;;;;;3.50;3.40;;;18.90;33.10;;;;;;4954292;28;20171;-77
2021/05/28 00:52:54;;;;;;;3.90;3.70;;;18.90;33.10;;;;;;4956518;29;20549;-77
2021/05/28 00:55:20;;;;;;;3.53;3.43;;;18.90;33.10;;;;;;4956359;29;20171;-76
2021/05/28 00:57:46;;;;;;;3.50;3.30;;;18.90;33.10;;;;;;4956431;29;20426;-76
2021/05/28 01:00:12;;;;;;;3.87;3.60;;;18.90;33.10;;;;;;4956348;29;20266;-76
2021/05/28 01:02:38;;;;;;;4.00;3.80;;;18.90;33.10;;;;;;4956061;29;20446;-76
2021/05/28 01:05:04;;;;;;;3.93;3.53;;;18.90;33.10;;;;;;4956054;29;20423;-76
2021/05/28 01:07:29;;;;;;;3.30;3.20;;;18.90;33.10;;;;;;4956165;28;20179;-76
2021/05/28 01:09:55;;;;;;;3.77;3.57;;;18.90;33.10;;;;;;4956251;29;20782;-76
2021/05/28 01:12:21;;;;;;;3.77;3.57;;;18.90;33.10;;;;;;4956116;29;20199;-76
2021/05/28 01:14:49;;;;;;;2.90;2.80;;;18.90;33.20;;;;;;4956124;29;20259;-76
2021/05/28 01:17:15;;;;;;;3.27;3.17;;;18.90;33.20;;;;;;4955903;29;20650;-76
2021/05/28 01:19:41;;;;;;;3.67;3.50;;;18.90;33.10;;;;;;4955889;29;20451;-76
2021/05/28 01:22:08;;;;;;;3.27;3.17;;;18.90;33.20;;;;;;4956055;29;20286;-75
2021/05/28 01:24:34;;;;;;;3.40;3.30;;;18.90;33.20;;;;;;4955739;29;20215;-76
2021/05/28 01:27:00;;;;;;;3.30;3.20;;;18.90;33.20;;;;;;4955756;29;20518;-76
2021/05/28 01:29:27;;;;;;;3.37;3.17;;;18.90;33.20;;;;;;4938505;29;20454;-77
2021/05/28 01:31:52;;;;;;;3.87;3.67;;;18.90;33.10;;;;;;4954442;29;20946;-76
2021/05/28 01:34:18;;;;;;;3.80;3.60;;;18.90;33.10;;;;;;4938570;29;20419;-76
2021/05/28 01:36:43;;;;;;;3.53;3.43;;;18.90;33.10;;;;;;4955440;29;20242;-77
2021/05/28 01:39:10;;;;;;;3.90;3.70;;;18.90;33.20;;;;;;4955705;29;20229;-77
2021/05/28 01:41:36;;;;;;;3.40;3.30;;;18.90;33.20;;;;;;4955568;29;20211;-77
2021/05/28 01:44:07;;;;;;;3.27;3.17;;;18.80;33.10;;;;;;4955584;29;20458;-76
2021/05/28 01:46:33;;;;;;;3.50;3.30;;;18.90;33.20;;;;;;4954111;29;20427;-76
2021/05/28 01:48:59;;;;;;;3.30;3.20;;;18.80;33.10;;;;;;4938401;29;20959;-76
2021/05/28 01:51:25;;;;;;;3.40;3.30;;;18.90;33.10;;;;;;4955501;29;20278;-76
2021/05/28 01:53:50;;;;;;;3.43;3.30;;;18.90;33.20;;;;;;4955383;29;20845;-76
2021/05/28 01:56:16;;;;;;;3.90;3.70;;;18.90;33.20;;;;;;4955263;29;20194;-75
2021/05/28 01:58:41;;;;;;;3.80;3.60;;;18.80;33.10;;;;;;4955404;29;20219;-76
2021/05/28 02:01:07;;;;;;;3.20;3.10;;;18.90;33.20;;;;;;4955012;28;20924;-77
2021/05/28 02:03:32;;;;;;;3.67;3.47;;;18.90;33.20;;;;;;4955439;29;20674;-77
2021/05/28 02:05:58;;;;;;;3.30;3.20;;;18.90;33.20;;;;;;4955055;29;20264;-76
2021/05/28 02:08:23;;;;;;;3.20;3.10;;;18.90;33.20;;;;;;4955235;29;20650;-75
2021/05/28 02:10:49;;;;;;;3.27;3.17;;;18.90;33.20;;;;;;4955226;29;20665;-76
2021/05/28 02:13:15;;;;;;;3.43;3.13;;;18.80;33.10;;;;;;4955115;29;20540;-77
2021/05/28 02:15:40;;;;;;;3.90;3.60;;;18.80;33.10;;;;;;4954905;29;20669;-76
2021/05/28 02:18:06;;;;;;;3.70;3.50;;;18.90;33.20;;;;;;4955067;29;20261;-76
2021/05/28 02:20:32;;;;;;;3.60;3.50;;;18.90;33.20;;;;;;4955121;29;20894;-76
2021/05/28 02:22:58;;;;;;;3.43;3.33;;;18.80;33.10;;;;;;4954663;29;20195;-76
2021/05/28 02:25:23;;;;;;;3.50;3.40;;;18.90;33.20;;;;;;4954563;29;20502;-76
2021/05/28 02:27:49;;;;;;;3.97;3.77;;;18.80;33.10;;;;;;4954731;29;20183;-76
2021/05/28 02:30:15;;;;;;;3.73;3.53;;;18.90;33.20;;;;;;4954609;29;20178;-76
2021/05/28 02:32:41;;;;;;;3.53;3.43;;;18.80;33.20;;;;;;4954345;29;20192;-76
2021/05/28 02:35:09;;;;;;;3.27;3.17;;;18.80;33.10;;;;;;4937037;29;20518;-76
2021/05/28 02:37:34;;;;;;;3.60;3.40;;;18.80;33.20;;;;;;4954564;29;20411;-77
2021/05/28 02:40:00;;;;;;;3.40;3.30;;;18.90;33.20;;;;;;4954657;29;20446;-76
2021/05/28 02:42:26;;;;;;;3.20;3.10;;;18.80;33.10;;;;;;4954271;29;20191;-76
2021/05/28 02:44:53;;;;;;;3.40;3.30;;;18.80;33.10;;;;;;4954357;29;20614;-76
2021/05/28 02:47:20;;;;;;;3.77;3.57;;;18.80;33.10;;;;;;4954307;29;20573;-77
2021/05/28 02:49:46;;;;;;;3.30;3.20;;;18.80;33.10;;;;;;4954385;29;20407;-76
2021/05/28 02:52:12;;;;;;;3.50;3.30;;;18.80;33.20;;;;;;4937058;29;20439;-76
2021/05/28 02:54:37;;;;;;;3.50;3.30;;;18.80;33.20;;;;;;4954195;29;20794;-76
2021/05/28 02:57:03;;;;;;;3.20;3.10;;;18.80;33.20;;;;;;4954103;29;20179;-76
2021/05/28 02:59:29;;;;;;;3.30;3.20;;;18.80;33.20;;;;;;4954312;29;20175;-76
2021/05/28 03:01:54;;;;;;;3.23;3.13;;;18.80;33.20;;;;;;4954310;29;20199;-77
2021/05/28 03:04:20;;;;;;;3.63;3.50;;;18.80;33.20;;;;;;4953948;29;20213;-77
2021/05/28 03:06:45;;;;;;;3.77;3.67;;;18.80;33.20;;;;;;4953941;29;20210;-77
2021/05/28 03:09:13;;;;;;;3.37;3.27;;;18.80;33.20;;;;;;4954124;29;20175;-77
2021/05/28 03:11:39;;;;;;;3.30;3.10;;;18.80;33.20;;;;;;4954151;29;20191;-76
2021/05/28 03:14:04;;;;;;;3.20;3.10;;;18.80;33.20;;;;;;4953363;28;20424;-77
2021/05/28 03:16:32;;;;;;;3.37;3.27;;;18.80;33.20;;;;;;4953916;29;20211;-76
2021/05/28 03:19:01;;;;;;;3.10;3.00;;;18.80;33.20;;;;;;4953943;29;20654;-77
2021/05/28 03:23:58;;;;;;;3.43;3.33;;;18.80;33.20;;;;;;4953646;29;20541;-77
2021/05/28 03:26:24;;;;;;;3.60;3.50;;;18.80;33.20;;;;;;4953894;29;20415;-77
2021/05/28 03:28:51;;;;;;;3.60;3.40;;;18.80;33.20;;;;;;4953807;29;20753;-77
2021/05/28 03:31:17;;;;;;;3.50;3.30;;;18.80;33.20;;;;;;4954017;29;20796;-76
2021/05/28 03:33:43;;;;;;;3.40;3.30;;;18.80;33.20;;;;;;4954912;29;20411;-76
2021/05/28 03:36:10;;;;;;;3.20;3.10;;;18.80;33.20;;;;;;4955858;29;20442;-76
2021/05/28 03:38:35;;;;;;;3.30;3.20;;;18.80;33.20;;;;;;4955264;29;20779;-76
2021/05/28 03:41:02;;;;;;;3.23;3.13;;;18.80;33.20;;;;;;4954390;29;20407;-75
2021/05/28 03:43:31;;;;;;;3.37;3.27;;;18.80;33.30;;;;;;4962585;28;20305;-75
2021/05/28 03:45:57;;;;;;;4.10;3.90;;;18.80;33.20;;;;;;4946658;29;20419;-76
2021/05/28 03:48:22;;;;;;;3.10;3.00;;;18.80;33.20;;;;;;4953756;29;20792;-76
2021/05/28 03:50:48;;;;;;;3.47;3.37;;;18.80;33.20;;;;;;4953594;29;20172;-76
2021/05/28 03:53:13;;;;;;;3.20;3.10;;;18.80;33.20;;;;;;4953760;29;20500;-75
2021/05/28 03:55:39;;;;;;;3.30;3.20;;;18.80;33.20;;;;;;4936510;29;20187;-75
2021/05/28 03:58:05;;;;;;;3.87;3.67;;;18.80;33.20;;;;;;4953575;29;20700;-76
2021/05/28 04:00:31;;;;;;;3.50;3.37;;;18.80;33.50;;;;;;4935022;29;20610;-76
2021/05/28 04:02:57;;;;;;;3.43;3.33;;;18.80;33.40;;;;;;4931814;29;20673;-77
2021/05/28 04:05:22;;;;;;;3.30;3.20;;;18.80;33.40;;;;;;4952998;29;20419;-76
2021/05/28 04:07:48;;;;;;;3.47;3.27;;;18.80;33.40;;;;;;4953196;29;20710;-76
2021/05/28 04:10:14;;;;;;;3.63;3.50;;;18.80;33.50;;;;;;4962810;28;20171;-76
2021/05/28 04:12:40;;;;;;;3.80;3.53;;;18.80;33.90;;;;;;4950137;28;20277;-76
2021/05/28 04:15:09;;;;;;;3.40;3.30;;;18.80;33.80;;;;;;4958738;28;20498;-77
2021/05/28 04:17:35;;;;;;;4.10;3.80;;;18.80;33.80;;;;;;4953392;29;20176;-75
2021/05/28 04:20:02;;;;;;;4.07;3.53;;;18.90;33.90;;;;;;4953657;29;20426;-76
2021/05/28 04:22:28;;;;;;;3.90;3.70;;;18.80;33.80;;;;;;4953308;29;20437;-74
2021/05/28 04:24:53;;;;;;;3.93;3.80;;;18.80;33.90;;;;;;4955235;28;20463;-75
2021/05/28 04:27:19;;;;;;;4.43;3.90;;;18.80;33.80;;;;;;4957008;29;20407;-75
2021/05/28 04:29:45;;;;;;;4.13;3.93;;;18.80;33.70;;;;;;4956676;29;20172;-76
2021/05/28 04:32:10;;;;;;;4.20;4.00;;;18.80;33.60;;;;;;4956861;29;20199;-75
2021/05/28 04:34:37;;;;;;;6.57;4.10;;;18.80;33.70;;;;;;4956922;29;20780;-76
2021/05/28 04:37:03;;;;;;;4.53;4.33;;;18.80;33.40;;;;;;4956273;29;20222;-76
2021/05/28 04:39:29;;;;;;;4.90;4.60;;;18.80;33.20;;;;;;4956896;29;20818;-76
2021/05/28 04:41:55;;;;;;;4.17;3.97;;;18.90;33.10;;;;;;4956597;29;20445;-76
2021/05/28 04:44:20;;;;;;;6.30;4.27;;;19.00;33.00;;;;;;4956362;29;20203;-76
2021/05/28 04:46:46;;;;;;;4.40;4.20;;;19.00;32.90;;;;;;4956561;29;20880;-75
2021/05/28 04:49:11;;;;;;;4.50;4.30;;;19.00;32.80;;;;;;4956759;29;20649;-76
2021/05/28 04:51:37;;;;;;;5.73;4.17;;;19.10;32.80;;;;;;4956119;29;20218;-76
2021/05/28 04:54:03;;;;;;;3.83;3.70;;;19.10;32.70;;;;;;4956957;29;20175;-78
2021/05/28 04:56:28;;;;;;;4.53;4.27;;;19.10;32.60;;;;;;4956558;29;20180;-77
2021/05/28 04:58:54;;;;;;;4.27;3.97;;;19.10;32.60;;;;;;4956475;29;20417;-78
2021/05/28 05:01:20;;;;;;;4.00;3.80;;;19.20;32.60;;;;;;4956625;29;20199;-77
2021/05/28 05:03:45;;;;;;;4.43;4.10;;;19.20;32.70;;;;;;4939243;29;20678;-74
2021/05/28 05:06:11;;;;;;;4.23;4.03;;;19.20;32.60;;;;;;4954463;29;20218;-76
2021/05/28 05:08:36;;;;;;;4.13;3.93;;;19.20;32.60;;;;;;4956714;29;20170;-76
2021/05/28 05:11:03;;;;;;;4.03;3.83;;;19.20;32.50;;;;;;4955451;29;20175;-76
2021/05/28 05:13:28;;;;;;;4.00;3.80;;;19.20;32.50;;;;;;4956431;29;20674;-75
2021/05/28 05:15:54;;;;;;;3.77;3.67;;;19.20;32.50;;;;;;4956402;29;20422;-76
2021/05/28 05:18:19;;;;;;;3.50;3.40;;;19.20;32.50;;;;;;4939339;29;20183;-76
2021/05/28 05:20:45;;;;;;;3.80;3.60;;;19.20;32.50;;;;;;4956072;29;20318;-76
2021/05/28 05:23:11;;;;;;;4.03;3.73;;;19.20;32.50;;;;;;4956392;29;20717;-75
2021/05/28 05:25:37;;;;;;;3.77;3.57;;;19.20;32.60;;;;;;4938794;29;20191;-75
2021/05/28 05:28:03;;;;;;;4.00;3.70;;;19.20;32.60;;;;;;4955948;29;20174;-76
2021/05/28 05:30:29;;;;;;;3.70;3.50;;;19.20;32.50;;;;;;4956213;29;20411;-75
2021/05/28 05:32:54;;;;;;;3.60;3.30;;;19.20;32.60;;;;;;4956246;29;20933;-76
2021/05/28 05:35:20;;;;;;;3.90;3.70;;;19.20;32.60;;;;;;4954900;28;20183;-76
2021/05/28 05:37:45;;;;;;;3.37;3.17;;;19.20;32.60;;;;;;4955508;29;20175;-76
2021/05/28 05:40:11;;;;;;;4.00;3.80;;;19.20;32.60;;;;;;4955682;29;20199;-77
2021/05/28 05:42:39;;;;;;;4.23;4.03;;;19.20;32.60;;;;;;4957444;29;20198;-76
2021/05/28 05:45:06;;;;;;;4.30;4.03;;;19.20;32.70;;;;;;4955671;29;20186;-75
2021/05/28 05:47:32;;;;;;;4.20;4.00;;;19.10;32.60;;;;;;4955956;29;20407;-75
2021/05/28 05:49:57;;;;;;;4.00;3.80;;;19.10;32.60;;;;;;4956343;29;20407;-76
2021/05/28 05:52:23;;;;;;;4.50;4.10;;;19.10;32.60;;;;;;4955672;29;20223;-76
2021/05/28 05:54:49;;;;;;;4.20;3.90;;;19.10;32.70;;;;;;4955577;29;20237;-76
2021/05/28 05:57:14;;;;;;;4.53;4.23;;;19.10;32.80;;;;;;4955342;29;20670;-75
2021/05/28 05:59:40;;;;;;;4.40;4.10;;;19.10;32.80;;;;;;4946606;29;20176;-77
2021/05/28 06:02:05;;;;;;;4.00;3.80;;;19.10;32.90;;;;;;4953829;29;20200;-77
2021/05/28 06:04:31;;;;;;;3.83;3.63;;;19.10;32.90;;;;;;4953689;29;20187;-77
2021/05/28 06:06:57;;;;;;;4.43;4.23;;;19.00;32.80;;;;;;4953467;29;20179;-77
2021/05/28 06:09:22;;;;;;;3.97;3.63;;;19.00;32.80;;;;;;4953985;29;20789;-76
2021/05/28 06:11:48;;;;;;;3.70;3.40;;;19.00;32.90;;;;;;4953655;29;20651;-76
2021/05/28 06:14:13;;;;;;;4.50;4.20;;;19.00;32.90;;;;;;4953314;29;20238;-77
2021/05/28 06:16:40;;;;;;;5.20;3.90;;;19.00;32.80;;;;;;4953620;29;20203;-76
2021/05/28 06:19:05;;;;;;;6.10;4.33;;;19.00;32.70;;;;;;4953437;29;20183;-76
2021/05/28 06:21:32;;;;;;;5.07;4.50;;;19.00;32.70;;;;;;4953436;29;20443;-76
2021/05/28 06:23:57;;;;;;;10.47;4.30;;;18.90;32.50;;;;;;4953430;28;20204;-77
2021/05/28 06:26:23;;;;;;;7.43;5.37;;;19.00;32.70;;;;;;4953857;28;20910;-77
2021/05/28 06:28:48;;;;;;;7.23;4.70;;;19.00;32.80;;;;;;4954540;28;20600;-77
2021/05/28 06:31:14;;;;;;;6.27;4.83;;;18.90;32.70;;;;;;4953213;29;20191;-78
2021/05/28 06:33:40;;;;;;;6.90;4.53;;;18.90;32.70;;;;;;4939943;29;20632;-76
2021/05/28 06:36:05;;;;;;;7.40;4.53;;;18.90;32.60;;;;;;4955656;28;20669;-77
2021/05/28 06:38:31;;;;;;;6.63;4.00;;;18.90;32.70;;;;;;4953355;29;20238;-77
2021/05/28 06:40:57;;;;;;;7.93;3.97;;;18.90;32.70;;;;;;4955172;28;20187;-76
2021/05/28 06:43:22;;;;;;;5.03;4.53;;;18.90;32.80;;;;;;4953215;29;20195;-77
2021/05/28 06:45:48;;;;;;;10.90;4.60;;;18.90;32.80;;;;;;4952845;29;20168;-77
2021/05/28 06:48:13;;;;;;;5.17;4.47;;;18.90;32.80;;;;;;4953344;28;20254;-77
2021/05/28 06:50:41;;;;;;;6.33;4.60;;;18.90;32.80;;;;;;4953720;29;20198;-76
2021/05/28 06:53:10;;;;;;;4.33;4.00;;;18.90;32.90;;;;;;4953571;29;20199;-76
2021/05/28 06:55:37;;;;;;;7.57;4.30;;;18.90;32.90;;;;;;4954099;29;20423;-76
2021/05/28 06:58:03;;;;;;;5.33;4.90;;;18.90;32.90;;;;;;4966932;28;20421;-76
2021/05/28 07:00:30;;;;;;;5.10;4.23;;;18.80;32.80;;;;;;4966165;28;20438;-77
2021/05/28 07:02:56;;;;;;;4.30;3.90;;;18.90;32.90;;;;;;4959484;28;20544;-76
2021/05/28 07:05:24;;;;;;;4.60;4.17;;;18.90;33.00;;;;;;4971835;28;20423;-76
2021/05/28 07:07:53;;;;;;;4.30;4.00;;;18.90;33.00;;;;;;4971481;28;20406;-76
2021/05/28 07:10:19;;;;;;;3.97;3.67;;;18.90;33.10;;;;;;4971749;28;20411;-76
2021/05/28 07:12:45;;;;;;;3.90;3.60;;;18.90;33.00;;;;;;4971795;28;20430;-76
2021/05/28 07:15:11;;;;;;;4.23;3.90;;;18.90;33.00;;;;;;4960953;28;20529;-76
2021/05/28 07:17:37;;;;;;;6.23;4.50;;;18.90;33.00;;;;;;4953505;29;20218;-76
2021/05/28 07:20:04;;;;;;;4.80;4.40;;;18.90;33.00;;;;;;4953915;29;20411;-75
2021/05/28 07:22:30;;;;;;;4.63;4.17;;;18.90;33.00;;;;;;4953759;29;20205;-76
2021/05/28 07:24:55;;;;;;;4.87;4.47;;;18.90;33.00;;;;;;4953759;29;20961;-75
2021/05/28 07:27:21;;;;;;;4.43;4.13;;;18.90;32.90;;;;;;4953791;29;20552;-75
2021/05/28 07:29:47;;;;;;;4.00;3.83;;;18.80;32.90;;;;;;4953627;29;20187;-76
2021/05/28 07:32:12;;;;;;;5.03;4.73;;;18.90;33.00;;;;;;4953901;29;20430;-76
2021/05/28 07:34:38;;;;;;;4.73;4.33;;;18.90;33.00;;;;;;4953631;29;20194;-76
2021/05/28 07:37:05;;;;;;;6.30;4.83;;;18.90;33.00;;;;;;4953750;29;20190;-77
2021/05/28 07:39:30;;;;;;;4.67;4.47;;;18.90;33.00;;;;;;4953662;29;20449;-75
2021/05/28 07:41:56;;;;;;;4.47;4.07;;;18.80;32.90;;;;;;4953927;29;20475;-75
2021/05/28 07:44:22;;;;;;;4.43;4.23;;;18.90;32.90;;;;;;4953660;29;20206;-74
2021/05/28 07:46:47;;;;;;;4.57;4.20;;;18.90;33.00;;;;;;4953241;29;20251;-75
2021/05/28 07:49:14;;;;;;;4.60;4.20;;;18.90;33.00;;;;;;4953773;29;20574;-75
2021/05/28 07:51:40;;;;;;;4.30;3.90;;;18.90;32.90;;;;;;4953497;29;20202;-76
2021/05/28 07:54:06;;;;;;;4.53;4.10;;;18.80;32.90;;;;;;4953654;29;20415;-76
2021/05/28 07:56:33;;;;;;;4.80;4.33;;;18.80;32.90;;;;;;4953477;29;20784;-75
2021/05/28 07:58:59;;;;;;;4.97;4.53;;;18.80;32.90;;;;;;4954110;28;20429;-74
2021/05/28 08:01:26;;;;;;;3.93;3.73;;;18.80;32.90;;;;;;4957338;29;20439;-76
2021/05/28 08:03:52;;;;;;;4.77;4.33;;;18.90;33.00;;;;;;4957704;29;20481;-76
2021/05/28 08:06:17;;;;;;;4.33;4.13;;;18.80;33.00;;;;;;4957093;29;20485;-76
2021/05/28 08:08:43;;;;;;;4.50;4.30;;;18.80;32.90;;;;;;4940482;29;20266;-76
2021/05/28 08:11:09;;;;;;;4.53;4.20;;;18.80;32.90;;;;;;4957470;29;20195;-77
2021/05/28 08:13:35;;;;;;;4.33;4.13;;;18.80;33.00;;;;;;4957422;29;20177;-76
2021/05/28 08:16:01;;;;;;;4.00;3.83;;;18.80;33.00;;;;;;4957215;29;20176;-76
2021/05/28 08:18:27;;;;;;;4.10;3.90;;;18.80;33.00;;;;;;4957195;29;20485;-76
2021/05/28 08:20:53;;;;;;;4.00;3.90;;;18.80;33.00;;;;;;4957017;29;20608;-76
2021/05/28 08:23:19;;;;;;;4.00;3.80;;;18.80;33.00;;;;;;4957580;29;20525;-76
2021/05/28 08:25:45;;;;;;;4.50;4.10;;;18.80;33.00;;;;;;4956425;29;20455;-76
2021/05/28 08:28:10;;;;;;;4.10;3.90;;;18.80;33.00;;;;;;4955509;29;20502;-77
2021/05/28 08:30:36;;;;;;;4.53;4.13;;;18.80;32.90;;;;;;4939257;29;20179;-76
2021/05/28 08:33:02;;;;;;;4.23;4.00;;;18.80;33.00;;;;;;4956467;29;20191;-76
2021/05/28 08:35:28;;;;;;;4.63;4.23;;;18.80;33.00;;;;;;4956441;29;20414;-76
2021/05/28 08:37:53;;;;;;;4.60;3.90;;;18.80;33.00;;;;;;4956955;29;20179;-76
2021/05/28 08:40:20;;;;;;;3.60;3.40;;;18.80;33.00;;;;;;4956908;29;20535;-77
2021/05/28 08:42:48;;;;;;;4.40;4.03;;;18.80;33.00;;;;;;4964305;28;20237;-76
2021/05/28 08:45:13;;;;;;;4.10;3.80;;;18.80;33.00;;;;;;4958673;28;20996;-77
2021/05/28 08:47:41;;;;;;;4.20;3.90;;;18.80;33.00;;;;;;4956890;29;20442;-77
2021/05/28 08:50:07;;;;;;;4.47;4.10;;;18.80;33.00;;;;;;4956746;29;20469;-77
2021/05/28 08:52:32;;;;;;;3.67;3.47;;;18.80;33.10;;;;;;4956685;29;20501;-77
2021/05/28 08:54:58;;;;;;;3.57;3.40;;;18.80;33.10;;;;;;4956683;29;20419;-76
2021/05/28 08:57:24;;;;;;;4.33;4.03;;;18.80;33.00;;;;;;4956547;29;20168;-76
2021/05/28 08:59:50;;;;;;;4.03;3.83;;;18.80;33.00;;;;;;4956313;29;20631;-77
2021/05/28 09:02:33;;;;;;;3.97;3.77;;;18.80;33.00;;;;;;4956333;29;20498;-76
2021/05/28 09:05:07;;;;;;;3.77;3.57;;;18.70;32.90;;;;;;4956301;29;20203;-76
2021/05/28 09:07:33;;;;;;;3.93;3.63;;;18.80;33.00;;;;;;4956304;29;20418;-76
2021/05/28 09:09:59;;;;;;;5.10;3.63;;;18.80;33.00;;;;;;4955824;28;20481;-76
2021/05/28 09:12:26;;;;;;;4.00;3.80;;;18.80;33.10;;;;;;4955316;29;20445;-76
2021/05/28 09:14:52;;;;;;;3.80;3.60;;;18.70;32.90;;;;;;4956224;29;20191;-76
2021/05/28 09:17:18;;;;;;;3.50;3.40;;;18.80;33.00;;;;;;4956017;29;20427;-76
2021/05/28 09:19:57;;;;;;;3.67;3.57;;;18.80;33.10;;;;;;4956242;29;20495;-77
2021/05/28 09:22:37;;;;;;;4.00;3.80;;;18.70;32.90;;;;;;4956017;29;20207;-77
2021/05/28 09:25:03;;;;;;;11.87;4.50;;;18.80;33.00;;;;;;4954374;29;20482;-77
2021/05/28 09:27:33;;;;;;;5.47;4.93;;;18.90;32.70;;;;;;4955915;29;20419;-77
2021/05/28 09:29:58;;;;;;;4.57;4.10;;;18.80;32.10;;;;;;4955941;29;20176;-76
2021/05/28 09:32:25;;;;;;;9.83;5.17;;;18.80;32.50;;;;;;4955830;29;20948;-77
2021/05/28 09:34:51;;;;;;;5.20;4.80;;;18.80;32.60;;;;;;4955746;29;20199;-77
2021/05/28 09:37:17;;;;;;;5.50;5.10;;;18.80;32.60;;;;;;4938488;29;20427;-77
2021/05/28 09:39:42;;;;;;;5.10;4.80;;;18.80;32.40;;;;;;4955770;29;20179;-77
2021/05/28 09:42:08;;;;;;;5.97;5.33;;;18.90;32.50;;;;;;4955863;29;20443;-77
2021/05/28 09:44:34;;;;;;;4.73;4.43;;;18.90;32.50;;;;;;4955712;29;20218;-76
2021/05/28 09:47:28;;;;;;;6.60;4.90;;;18.80;32.20;;;;;;4955542;29;20637;-76
2021/05/28 09:49:56;;;;;;;5.90;5.50;;;18.80;32.20;;;;;;4955457;29;20218;-76
2021/05/28 09:52:24;;;;;;;6.03;5.50;;;18.80;32.00;;;;;;4955494;29;20443;-77
2021/05/28 09:54:53;;;;;;;12.77;6.00;;;18.90;32.10;;;;;;4955224;29;20423;-76
2021/05/28 09:57:33;;;;;;;5.57;5.10;;;18.80;31.80;;;;;;4955428;29;20446;-76
2021/05/28 10:00:00;;;;;;;5.57;5.00;;;18.90;31.90;;;;;;4955666;29;21051;-76
2021/05/28 10:02:34;;;;;;;6.60;5.10;;;18.90;31.90;;;;;;4955368;29;20435;-77
2021/05/28 10:05:00;;;;;;;6.80;6.20;;;18.90;31.80;;;;;;4953938;29;20602;-77
2021/05/28 10:07:27;;;;;;;6.23;5.50;;;18.90;31.80;;;;;;4955712;29;20838;-77
2021/05/28 10:09:54;;;;;;;6.00;5.40;;;18.90;31.80;;;;;;4955561;29;20411;-76
2021/05/28 10:12:22;;;;;;;5.63;5.13;;;18.90;31.70;;;;;;4955032;29;20458;-76
2021/05/28 10:14:49;;;;;;;7.60;5.07;;;18.90;31.60;;;;;;4938043;29;20498;-77
2021/05/28 10:17:16;;;;;;;6.47;5.97;;;18.90;31.80;;;;;;4955279;29;20423;-75
2021/05/28 10:19:42;;;;;;;5.43;5.13;;;19.00;31.80;;;;;;4955274;29;20478;-75
2021/05/28 10:22:08;;;;;;;5.17;4.77;;;19.00;31.80;;;;;;4955366;28;20431;-76
2021/05/28 10:24:34;;;;;;;5.43;5.03;;;18.90;31.70;;;;;;4956106;29;20203;-76
2021/05/28 10:27:00;;;;;;;6.00;5.60;;;18.90;31.60;;;;;;4956024;29;20415;-76
2021/05/28 10:29:27;;;;;;;6.70;6.10;;;19.00;31.80;;;;;;4955927;29;20503;-75
2021/05/28 10:32:09;;;;;;;5.30;5.00;;;19.00;31.80;;;;;;4956280;29;20214;-78
2021/05/28 10:34:34;;;;;;;5.67;5.17;;;19.00;31.80;;;;;;4956268;29;20474;-76
2021/05/28 10:37:00;;;;;;;7.40;5.63;;;19.00;31.90;;;;;;4955618;29;20415;-75
2021/05/28 10:39:27;;;;;;;5.50;5.10;;;19.00;31.90;;;;;;4955021;29;20206;-77
2021/05/28 10:42:07;;;;;;;5.57;4.87;;;19.00;32.00;;;;;;4955032;29;20198;-76
2021/05/28 10:44:40;;;;;;;5.63;5.20;;;19.00;32.00;;;;;;4954724;29;20557;-76
2021/05/28 10:47:12;;;;;;;7.27;5.60;;;19.00;32.00;;;;;;4954518;29;20502;-76
2021/05/28 10:49:49;;;;;;;5.53;5.10;;;19.00;32.00;;;;;;4954821;29;20498;-78
2021/05/28 10:52:29;;;;;;;6.07;5.57;;;19.10;32.10;;;;;;4955209;29;20431;-77
2021/05/28 10:55:15;;;;;;;7.00;5.50;;;19.10;32.10;;;;;;4956044;29;20414;-76
2021/05/28 10:57:50;;;;;;;6.40;4.70;;;19.10;32.00;;;;;;4953851;29;20426;-78
2021/05/28 11:00:25;;;;;;;5.83;4.70;;;19.10;32.00;;;;;;4954131;29;20421;-77
2021/05/28 11:03:00;;;;;;;5.83;5.40;;;19.10;31.90;;;;;;4955096;29;20472;-77
2021/05/28 11:05:48;;;;;;;8.53;5.30;;;19.10;32.00;;;;;;4956654;29;20912;-78
2021/05/28 11:08:42;;;;;;;5.93;5.20;;;19.10;32.00;;;;;;4954999;29;20411;-77
2021/05/28 11:11:08;;;;;;;5.73;5.23;;;19.20;32.10;;;;;;4956366;29;20413;-78
2021/05/28 11:13:55;;;;;;;5.67;5.17;;;19.20;32.10;;;;;;4955491;29;20503;-76
2021/05/28 11:16:20;;;;;;;5.13;4.83;;;19.20;32.00;;;;;;4952097;29;20419;-77
2021/05/28 11:18:47;;;;;;;5.50;4.97;;;19.20;32.00;;;;;;4952568;29;20463;-78
2021/05/28 11:21:18;;;;;;;5.70;5.03;;;19.10;32.00;;;;;;4936019;29;20199;-76
2021/05/28 11:23:45;;;;;;;4.93;4.43;;;19.20;32.00;;;;;;4954115;29;20459;-77
2021/05/28 11:26:16;;;;;;;5.30;4.90;;;19.20;32.00;;;;;;4953829;29;20447;-76
2021/05/28 11:28:53;;;;;;;5.73;5.37;;;19.20;31.90;;;;;;4954103;29;20403;-76
2021/05/28 11:31:20;;;;;;;5.90;5.47;;;19.20;31.80;;;;;;4954048;29;20431;-77
2021/05/28 11:33:46;;;;;;;6.57;5.90;;;19.20;31.80;;;;;;4953450;28;20439;-76
2021/05/28 11:36:34;;;;;;;5.23;4.83;;;19.20;31.80;;;;;;4953834;29;20438;-76
2021/05/28 11:39:05;;;;;;;5.30;5.00;;;19.20;31.70;;;;;;4954024;29;20602;-75
2021/05/28 11:41:47;;;;;;;5.50;5.17;;;19.20;31.60;;;;;;4953795;29;20435;-75
2021/05/28 11:44:16;;;;;;;5.80;5.40;;;19.20;31.60;;;;;;4953834;29;20558;-76
2021/05/28 11:46:44;;;;;;;5.10;4.73;;;19.10;31.50;;;;;;4953769;29;20403;-76
2021/05/28 11:49:10;;;;;;;5.20;4.80;;;19.10;31.40;;;;;;4954046;29;20430;-76
2021/05/28 11:51:36;;;;;;;5.10;4.70;;;19.10;31.40;;;;;;4953917;29;20434;-77
2021/05/28 11:54:19;;;;;;;5.00;4.70;;;19.20;31.50;;;;;;4937016;29;20474;-75
2021/05/28 11:56:59;;;;;;;5.43;5.03;;;19.20;31.40;;;;;;4953740;29;20179;-75
2021/05/28 11:59:54;;;;;;;5.20;4.80;;;19.20;31.40;;;;;;4953787;29;20426;-76
2021/05/28 12:02:34;;;;;;;5.87;5.43;;;19.20;31.40;;;;;;4953687;29;20498;-76
2021/05/28 12:04:59;;;;;;;5.83;5.40;;;19.10;31.20;;;;;;4953204;29;20703;-77
2021/05/28 12:07:29;;;;;;;5.40;5.00;;;19.20;31.30;;;;;;4953652;29;20517;-75
2021/05/28 12:10:09;;;;;;;6.20;5.80;;;19.10;31.30;;;;;;4953691;29;20707;-77
2021/05/28 12:12:58;;;;;;;5.17;4.87;;;19.20;31.40;;;;;;4960358;28;20799;-77
2021/05/28 12:15:30;;;;;;;5.23;4.93;;;19.10;31.30;;;;;;4972738;28;20406;-77
2021/05/28 12:17:56;;;;;;;5.67;5.27;;;19.20;31.40;;;;;;4961362;28;20422;-77
2021/05/28 12:20:24;;;;;;;4.90;4.60;;;19.20;31.40;;;;;;4953683;29;20422;-76
2021/05/28 12:23:13;;;;;;;4.70;4.40;;;19.20;31.40;;;;;;4953539;29;20463;-76
2021/05/28 12:25:59;;;;;;;5.17;4.77;;;19.20;31.40;;;;;;4953411;29;20431;-77
2021/05/28 12:28:28;;;;;;;5.10;4.70;;;19.20;31.30;;;;;;4953219;28;20418;-75
2021/05/28 12:31:12;;;;;;;5.60;5.10;;;19.20;31.30;;;;;;4953235;29;20914;-76
2021/05/28 12:33:50;;;;;;;5.53;5.07;;;19.20;31.40;;;;;;4953624;29;20903;-77
2021/05/28 12:36:17;;;;;;;7.23;5.40;;;19.20;31.40;;;;;;4952572;29;20426;-75
2021/05/28 12:38:45;;;;;;;5.83;5.43;;;19.20;32.20;;;;;;4953137;29;20434;-77
2021/05/28 12:41:16;;;;;;;5.53;5.20;;;19.20;31.50;;;;;;4955618;29;20438;-78
2021/05/28 12:43:43;;;;;;;5.83;5.23;;;19.20;31.50;;;;;;4953669;29;20497;-79
2021/05/28 12:46:28;;;;;;;5.60;5.20;;;19.20;31.50;;;;;;4959387;28;20411;-80
2021/05/28 12:49:05;;;;;;;5.23;4.90;;;19.20;31.60;;;;;;4955896;29;20407;-76
2021/05/28 12:51:38;;;;;;;5.27;4.90;;;19.20;31.60;;;;;;4956708;29;20434;-76